sensor_id;sensor_type;location;lat;lon;timestamp;temperature;humidity
31661;DHT22;18267;52.234;7.444;2024-03-02T00:02:01;8.10;99.90
31661;DHT22;18267;52.234;7.444;2024-03-02T00:04:27;8.00;99.90
31661;DHT22;18267;52.234;7.444;2024-03-02T00:06:53;7.90;99.90
31661;DHT22;18267;52.234;7.444;2024-03-02T00:09:20;8.00;99.90
31661;DHT22;18267;52.234;7.444;2024-03-02T00:11:45;8.00;99.90
31661;DHT22;18267;52.234;7.444;2024-03-02T00:14:11;8.00;99.90
31661;DHT22;18267;52.234;7.444;2024-03-02T00:16:37;8.00;99.90
31661;DHT22;18267;52.234;7.444;2024-03-02T00:19:03;7.90;99.90
31661;DHT22;18267;52.234;7.444;2024-03-02T00:21:31;7.90;99.90
31661;DHT22;18267;52.234;7.444;2024-03-02T00:23:57;7.90;99.90
31661;DHT22;18267;52.234;7.444;2024-03-02T00:26:22;7.90;99.90
31661;DHT22;18267;52.234;7.444;2024-03-02T00:28:48;7.80;99.90
31661;DHT22;18267;52.234;7.444;2024-03-02T00:31:16;8.00;99.90
31661;DHT22;18267;52.234;7.444;2024-03-02T00:33:46;8.00;99.90
31661;DHT22;18267;52.234;7.444;2024-03-02T00:36:14;8.00;99.90
31661;DHT22;18267;52.234;7.444;2024-03-02T00:38:49;8.00;99.90
31661;DHT22;18267;52.234;7.444;2024-03-02T00:41:23;7.90;99.90
31661;DHT22;18267;52.234;7.444;2024-03-02T00:44:03;8.00;99.90
31661;DHT22;18267;52.234;7.444;2024-03-02T00:46:38;8.00;99.90
31661;DHT22;18267;52.234;7.444;2024-03-02T00:49:05;7.90;99.90
31661;DHT22;18267;52.234;7.444;2024-03-02T00:51:35;7.90;99.90
31661;DHT22;18267;52.234;7.444;2024-03-02T00:54:05;7.80;99.90
31661;DHT22;18267;52.234;7.444;2024-03-02T00:56:32;7.80;99.90
31661;DHT22;18267;52.234;7.444;2024-03-02T00:58:57;7.80;99.90
31661;DHT22;18267;52.234;7.444;2024-03-02T01:01:23;7.80;99.90
31661;DHT22;18267;52.234;7.444;2024-03-02T01:03:49;7.80;99.90
31661;DHT22;18267;52.234;7.444;2024-03-02T01:06:15;7.80;99.90
31661;DHT22;18267;52.234;7.444;2024-03-02T01:08:41;7.70;99.90
31661;DHT22;18267;52.234;7.444;2024-03-02T01:11:06;7.60;99.90
31661;DHT22;18267;52.234;7.444;2024-03-02T01:13:32;7.70;99.90
31661;DHT22;18267;52.234;7.444;2024-03-02T01:15:58;7.60;99.90
31661;DHT22;18267;52.234;7.444;2024-03-02T01:18:24;7.60;99.90
31661;DHT22;18267;52.234;7.444;2024-03-02T01:20:50;7.70;99.90
31661;DHT22;18267;52.234;7.444;2024-03-02T01:23:20;7.70;99.90
31661;DHT22;18267;52.234;7.444;2024-03-02T01:25:47;7.70;99.90
31661;DHT22;18267;52.234;7.444;2024-03-02T01:28:13;7.70;99.90
31661;DHT22;18267;52.234;7.444;2024-03-02T01:30:38;7.70;99.90
31661;DHT22;18267;52.234;7.444;2024-03-02T01:33:04;7.80;99.90
31661;DHT22;18267;52.234;7.444;2024-03-02T01:35:31;8.00;99.90
31661;DHT22;18267;52.234;7.444;2024-03-02T01:37:56;8.00;99.90
31661;DHT22;18267;52.234;7.444;2024-03-02T01:40:22;8.00;99.90
31661;DHT22;18267;52.234;7.444;2024-03-02T01:42:52;7.90;99.90
31661;DHT22;18267;52.234;7.444;2024-03-02T01:45:18;7.80;99.90
31661;DHT22;18267;52.234;7.444;2024-03-02T01:47:43;7.80;99.90
31661;DHT22;18267;52.234;7.444;2024-03-02T01:50:11;7.90;99.90
31661;DHT22;18267;52.234;7.444;2024-03-02T01:52:37;7.90;99.90
31661;DHT22;18267;52.234;7.444;2024-03-02T01:55:03;7.90;99.90
31661;DHT22;18267;52.234;7.444;2024-03-02T01:57:29;7.80;99.90
31661;DHT22;18267;52.234;7.444;2024-03-02T01:59:55;7.80;99.90
31661;DHT22;18267;52.234;7.444;2024-03-02T02:02:21;7.80;99.90
31661;DHT22;18267;52.234;7.444;2024-03-02T02:04:46;7.90;99.90
31661;DHT22;18267;52.234;7.444;2024-03-02T02:07:12;7.90;99.90
31661;DHT22;18267;52.234;7.444;2024-03-02T02:09:42;7.80;99.90
31661;DHT22;18267;52.234;7.444;2024-03-02T02:12:09;7.70;99.90
31661;DHT22;18267;52.234;7.444;2024-03-02T02:14:35;7.70;99.90
31661;DHT22;18267;52.234;7.444;2024-03-02T02:17:01;7.80;99.90
31661;DHT22;18267;52.234;7.444;2024-03-02T02:19:26;7.70;99.90
31661;DHT22;18267;52.234;7.444;2024-03-02T02:21:52;7.70;99.90
31661;DHT22;18267;52.234;7.444;2024-03-02T02:24:18;7.70;99.90
31661;DHT22;18267;52.234;7.444;2024-03-02T02:26:43;7.60;99.90
31661;DHT22;18267;52.234;7.444;2024-03-02T02:29:09;7.60;99.90
31661;DHT22;18267;52.234;7.444;2024-03-02T02:31:41;7.60;99.90
31661;DHT22;18267;52.234;7.444;2024-03-02T02:34:07;7.60;99.90
31661;DHT22;18267;52.234;7.444;2024-03-02T02:36:33;7.70;99.90
31661;DHT22;18267;52.234;7.444;2024-03-02T02:39:03;7.70;99.90
31661;DHT22;18267;52.234;7.444;2024-03-02T02:41:30;7.70;99.90
31661;DHT22;18267;52.234;7.444;2024-03-02T02:43:56;7.70;99.90
31661;DHT22;18267;52.234;7.444;2024-03-02T02:46:21;7.60;99.90
31661;DHT22;18267;52.234;7.444;2024-03-02T02:48:47;7.70;99.90
31661;DHT22;18267;52.234;7.444;2024-03-02T02:51:12;7.60;99.90
31661;DHT22;18267;52.234;7.444;2024-03-02T02:53:38;7.60;99.90
31661;DHT22;18267;52.234;7.444;2024-03-02T02:56:06;7.60;99.90
31661;DHT22;18267;52.234;7.444;2024-03-02T02:58:32;7.70;99.90
31661;DHT22;18267;52.234;7.444;2024-03-02T03:00:57;7.60;99.90
31661;DHT22;18267;52.234;7.444;2024-03-02T03:03:23;7.60;99.90
31661;DHT22;18267;52.234;7.444;2024-03-02T03:05:48;7.50;99.90
31661;DHT22;18267;52.234;7.444;2024-03-02T03:08:14;7.40;99.90
31661;DHT22;18267;52.234;7.444;2024-03-02T03:10:41;7.50;99.90
31661;DHT22;18267;52.234;7.444;2024-03-02T03:13:07;7.40;99.90
31661;DHT22;18267;52.234;7.444;2024-03-02T03:15:34;7.40;99.90
31661;DHT22;18267;52.234;7.444;2024-03-02T03:18:02;7.40;99.90
31661;DHT22;18267;52.234;7.444;2024-03-02T03:20:29;7.40;99.90
31661;DHT22;18267;52.234;7.444;2024-03-02T03:22:55;7.40;99.90
31661;DHT22;18267;52.234;7.444;2024-03-02T03:25:20;7.40;99.90
31661;DHT22;18267;52.234;7.444;2024-03-02T03:27:46;7.40;99.90
31661;DHT22;18267;52.234;7.444;2024-03-02T03:30:12;7.50;99.90
31661;DHT22;18267;52.234;7.444;2024-03-02T03:32:38;7.50;99.90
31661;DHT22;18267;52.234;7.444;2024-03-02T03:35:04;7.50;99.90
31661;DHT22;18267;52.234;7.444;2024-03-02T03:37:29;7.40;99.90
31661;DHT22;18267;52.234;7.444;2024-03-02T03:40:05;7.40;99.90
31661;DHT22;18267;52.234;7.444;2024-03-02T03:42:37;7.40;99.90
31661;DHT22;18267;52.234;7.444;2024-03-02T03:45:03;7.40;99.90
31661;DHT22;18267;52.234;7.444;2024-03-02T03:47:31;7.40;99.90
31661;DHT22;18267;52.234;7.444;2024-03-02T03:49:57;7.40;99.90
31661;DHT22;18267;52.234;7.444;2024-03-02T03:52:23;7.40;99.90
31661;DHT22;18267;52.234;7.444;2024-03-02T03:54:48;7.40;99.90
31661;DHT22;18267;52.234;7.444;2024-03-02T03:57:14;7.40;99.90
31661;DHT22;18267;52.234;7.444;2024-03-02T03:59:40;7.50;99.90
31661;DHT22;18267;52.234;7.444;2024-03-02T04:02:06;7.50;99.90
31661;DHT22;18267;52.234;7.444;2024-03-02T04:04:32;7.50;99.90
31661;DHT22;18267;52.234;7.444;2024-03-02T04:06:59;7.50;99.90
31661;DHT22;18267;52.234;7.444;2024-03-02T04:09:24;7.50;99.90
31661;DHT22;18267;52.234;7.444;2024-03-02T04:11:51;7.50;99.90
31661;DHT22;18267;52.234;7.444;2024-03-02T04:14:16;7.50;99.90
31661;DHT22;18267;52.234;7.444;2024-03-02T04:16:42;7.50;99.90
31661;DHT22;18267;52.234;7.444;2024-03-02T04:19:07;7.50;99.90
31661;DHT22;18267;52.234;7.444;2024-03-02T04:21:33;7.50;99.90
31661;DHT22;18267;52.234;7.444;2024-03-02T04:23:58;7.50;99.90
31661;DHT22;18267;52.234;7.444;2024-03-02T04:26:25;7.50;99.90
31661;DHT22;18267;52.234;7.444;2024-03-02T04:28:51;7.50;99.90
31661;DHT22;18267;52.234;7.444;2024-03-02T04:31:17;7.40;99.90
31661;DHT22;18267;52.234;7.444;2024-03-02T04:33:43;7.40;99.90
31661;DHT22;18267;52.234;7.444;2024-03-02T04:36:08;7.30;99.90
31661;DHT22;18267;52.234;7.444;2024-03-02T04:38:38;7.30;99.90
31661;DHT22;18267;52.234;7.444;2024-03-02T04:41:04;7.30;99.90
31661;DHT22;18267;52.234;7.444;2024-03-02T04:43:34;7.30;99.90
31661;DHT22;18267;52.234;7.444;2024-03-02T04:46:00;7.20;99.90
31661;DHT22;18267;52.234;7.444;2024-03-02T04:48:26;7.30;99.90
31661;DHT22;18267;52.234;7.444;2024-03-02T04:50:51;7.20;99.90
31661;DHT22;18267;52.234;7.444;2024-03-02T04:53:17;7.20;99.90
31661;DHT22;18267;52.234;7.444;2024-03-02T04:55:43;7.20;99.90
31661;DHT22;18267;52.234;7.444;2024-03-02T04:58:08;7.20;99.90
31661;DHT22;18267;52.234;7.444;2024-03-02T05:00:34;7.20;99.90
31661;DHT22;18267;52.234;7.444;2024-03-02T05:03:00;7.10;99.90
31661;DHT22;18267;52.234;7.444;2024-03-02T05:05:25;7.10;99.90
31661;DHT22;18267;52.234;7.444;2024-03-02T05:07:52;7.10;99.90
31661;DHT22;18267;52.234;7.444;2024-03-02T05:10:17;7.10;99.90
31661;DHT22;18267;52.234;7.444;2024-03-02T05:12:43;7.00;99.90
31661;DHT22;18267;52.234;7.444;2024-03-02T05:15:09;7.10;99.90
31661;DHT22;18267;52.234;7.444;2024-03-02T05:17:36;7.10;99.90
31661;DHT22;18267;52.234;7.444;2024-03-02T05:20:02;7.00;99.90
31661;DHT22;18267;52.234;7.444;2024-03-02T05:22:28;7.00;99.90
31661;DHT22;18267;52.234;7.444;2024-03-02T05:24:54;7.00;99.90
31661;DHT22;18267;52.234;7.444;2024-03-02T05:27:19;7.00;99.90
31661;DHT22;18267;52.234;7.444;2024-03-02T05:29:45;7.00;99.90
31661;DHT22;18267;52.234;7.444;2024-03-02T05:32:10;7.10;99.90
31661;DHT22;18267;52.234;7.444;2024-03-02T05:34:36;7.00;99.90
31661;DHT22;18267;52.234;7.444;2024-03-02T05:37:01;7.00;99.90
31661;DHT22;18267;52.234;7.444;2024-03-02T05:39:27;7.10;99.90
31661;DHT22;18267;52.234;7.444;2024-03-02T05:41:53;7.10;99.90
31661;DHT22;18267;52.234;7.444;2024-03-02T05:44:18;7.00;99.90
31661;DHT22;18267;52.234;7.444;2024-03-02T05:46:45;7.00;99.90
31661;DHT22;18267;52.234;7.444;2024-03-02T05:49:10;7.00;99.90
31661;DHT22;18267;52.234;7.444;2024-03-02T05:51:36;7.10;99.90
31661;DHT22;18267;52.234;7.444;2024-03-02T05:54:02;7.00;99.90
31661;DHT22;18267;52.234;7.444;2024-03-02T05:56:28;6.90;99.90
31661;DHT22;18267;52.234;7.444;2024-03-02T05:58:53;6.90;99.90
31661;DHT22;18267;52.234;7.444;2024-03-02T06:01:45;6.80;99.90
31661;DHT22;18267;52.234;7.444;2024-03-02T06:04:13;6.80;99.90
31661;DHT22;18267;52.234;7.444;2024-03-02T06:06:39;6.80;99.90
31661;DHT22;18267;52.234;7.444;2024-03-02T06:09:05;6.90;99.90
31661;DHT22;18267;52.234;7.444;2024-03-02T06:11:42;6.80;99.90
31661;DHT22;18267;52.234;7.444;2024-03-02T06:14:08;6.80;99.90
31661;DHT22;18267;52.234;7.444;2024-03-02T06:16:34;6.90;99.90
31661;DHT22;18267;52.234;7.444;2024-03-02T06:19:00;7.00;99.90
31661;DHT22;18267;52.234;7.444;2024-03-02T06:21:27;6.90;99.90
31661;DHT22;18267;52.234;7.444;2024-03-02T06:23:53;6.80;99.90
31661;DHT22;18267;52.234;7.444;2024-03-02T06:26:19;6.80;99.90
31661;DHT22;18267;52.234;7.444;2024-03-02T06:28:45;6.80;99.90
31661;DHT22;18267;52.234;7.444;2024-03-02T06:31:11;6.80;99.90
31661;DHT22;18267;52.234;7.444;2024-03-02T06:33:37;6.80;99.90
31661;DHT22;18267;52.234;7.444;2024-03-02T06:36:03;6.80;99.90
31661;DHT22;18267;52.234;7.444;2024-03-02T06:38:29;6.70;99.90
31661;DHT22;18267;52.234;7.444;2024-03-02T06:40:54;6.70;99.90
31661;DHT22;18267;52.234;7.444;2024-03-02T06:43:23;6.70;99.90
31661;DHT22;18267;52.234;7.444;2024-03-02T06:45:50;6.70;99.90
31661;DHT22;18267;52.234;7.444;2024-03-02T06:48:16;6.70;99.90
31661;DHT22;18267;52.234;7.444;2024-03-02T06:50:46;6.90;99.90
31661;DHT22;18267;52.234;7.444;2024-03-02T06:53:12;6.90;99.90
31661;DHT22;18267;52.234;7.444;2024-03-02T06:55:37;6.90;99.90
31661;DHT22;18267;52.234;7.444;2024-03-02T06:58:03;7.10;99.90
31661;DHT22;18267;52.234;7.444;2024-03-02T07:00:28;7.10;99.90
31661;DHT22;18267;52.234;7.444;2024-03-02T07:02:54;7.10;99.90
31661;DHT22;18267;52.234;7.444;2024-03-02T07:05:20;7.20;99.90
31661;DHT22;18267;52.234;7.444;2024-03-02T07:07:46;7.10;99.90
31661;DHT22;18267;52.234;7.444;2024-03-02T07:10:12;7.10;99.90
31661;DHT22;18267;52.234;7.444;2024-03-02T07:12:37;7.10;99.90
31661;DHT22;18267;52.234;7.444;2024-03-02T07:15:03;7.20;99.90
31661;DHT22;18267;52.234;7.444;2024-03-02T07:17:29;7.20;99.90
31661;DHT22;18267;52.234;7.444;2024-03-02T07:19:56;7.20;99.90
31661;DHT22;18267;52.234;7.444;2024-03-02T07:22:22;7.20;99.90
31661;DHT22;18267;52.234;7.444;2024-03-02T07:24:48;7.20;99.90
31661;DHT22;18267;52.234;7.444;2024-03-02T07:27:15;7.30;99.90
31661;DHT22;18267;52.234;7.444;2024-03-02T07:29:42;7.30;99.90
31661;DHT22;18267;52.234;7.444;2024-03-02T07:32:08;7.30;99.90
31661;DHT22;18267;52.234;7.444;2024-03-02T07:34:34;7.40;99.90
31661;DHT22;18267;52.234;7.444;2024-03-02T07:37:00;7.40;99.90
31661;DHT22;18267;52.234;7.444;2024-03-02T07:39:26;7.50;99.90
31661;DHT22;18267;52.234;7.444;2024-03-02T07:41:52;7.50;99.90
31661;DHT22;18267;52.234;7.444;2024-03-02T07:44:17;7.60;99.90
31661;DHT22;18267;52.234;7.444;2024-03-02T07:46:45;7.60;99.90
31661;DHT22;18267;52.234;7.444;2024-03-02T07:49:20;7.60;99.90
31661;DHT22;18267;52.234;7.444;2024-03-02T07:51:46;7.60;99.90
31661;DHT22;18267;52.234;7.444;2024-03-02T07:54:11;7.60;99.90
31661;DHT22;18267;52.234;7.444;2024-03-02T07:56:37;7.60;99.90
31661;DHT22;18267;52.234;7.444;2024-03-02T07:59:04;7.70;99.90
31661;DHT22;18267;52.234;7.444;2024-03-02T08:01:30;7.70;99.90
31661;DHT22;18267;52.234;7.444;2024-03-02T08:04:00;7.80;99.90
31661;DHT22;18267;52.234;7.444;2024-03-02T08:06:29;7.90;99.90
31661;DHT22;18267;52.234;7.444;2024-03-02T08:08:55;8.00;99.90
31661;DHT22;18267;52.234;7.444;2024-03-02T08:11:21;8.00;99.90
31661;DHT22;18267;52.234;7.444;2024-03-02T08:13:47;8.00;99.90
31661;DHT22;18267;52.234;7.444;2024-03-02T08:16:16;8.10;99.90
31661;DHT22;18267;52.234;7.444;2024-03-02T08:18:45;8.10;99.90
31661;DHT22;18267;52.234;7.444;2024-03-02T08:21:11;8.20;99.90
31661;DHT22;18267;52.234;7.444;2024-03-02T08:23:37;8.20;99.90
31661;DHT22;18267;52.234;7.444;2024-03-02T08:26:03;8.20;99.90
31661;DHT22;18267;52.234;7.444;2024-03-02T08:28:29;8.30;99.90
31661;DHT22;18267;52.234;7.444;2024-03-02T08:30:55;8.30;99.90
31661;DHT22;18267;52.234;7.444;2024-03-02T08:33:21;8.40;99.90
31661;DHT22;18267;52.234;7.444;2024-03-02T08:35:46;8.50;99.90
31661;DHT22;18267;52.234;7.444;2024-03-02T08:38:12;8.50;99.90
31661;DHT22;18267;52.234;7.444;2024-03-02T08:40:38;8.60;99.90
31661;DHT22;18267;52.234;7.444;2024-03-02T08:43:03;8.60;99.90
31661;DHT22;18267;52.234;7.444;2024-03-02T08:45:29;8.60;99.90
31661;DHT22;18267;52.234;7.444;2024-03-02T08:47:55;8.60;99.90
31661;DHT22;18267;52.234;7.444;2024-03-02T08:50:20;8.60;99.90
31661;DHT22;18267;52.234;7.444;2024-03-02T08:52:46;8.70;99.90
31661;DHT22;18267;52.234;7.444;2024-03-02T08:55:11;8.70;99.90
31661;DHT22;18267;52.234;7.444;2024-03-02T08:57:37;8.80;99.90
31661;DHT22;18267;52.234;7.444;2024-03-02T09:00:03;8.80;99.90
31661;DHT22;18267;52.234;7.444;2024-03-02T09:02:31;8.80;99.90
31661;DHT22;18267;52.234;7.444;2024-03-02T09:04:57;8.80;99.90
31661;DHT22;18267;52.234;7.444;2024-03-02T09:07:23;8.90;99.90
31661;DHT22;18267;52.234;7.444;2024-03-02T09:09:49;8.90;99.90
31661;DHT22;18267;52.234;7.444;2024-03-02T09:12:14;9.00;99.90
31661;DHT22;18267;52.234;7.444;2024-03-02T09:14:40;9.20;99.90
31661;DHT22;18267;52.234;7.444;2024-03-02T09:17:06;9.20;99.90
31661;DHT22;18267;52.234;7.444;2024-03-02T09:19:32;9.20;99.90
31661;DHT22;18267;52.234;7.444;2024-03-02T09:21:58;9.20;99.90
31661;DHT22;18267;52.234;7.444;2024-03-02T09:24:24;9.20;99.90
31661;DHT22;18267;52.234;7.444;2024-03-02T09:26:50;9.30;99.90
31661;DHT22;18267;52.234;7.444;2024-03-02T09:29:15;9.40;99.90
31661;DHT22;18267;52.234;7.444;2024-03-02T09:31:41;9.40;99.90
31661;DHT22;18267;52.234;7.444;2024-03-02T09:34:07;9.50;99.90
31661;DHT22;18267;52.234;7.444;2024-03-02T09:36:33;9.50;99.90
31661;DHT22;18267;52.234;7.444;2024-03-02T09:38:58;9.60;99.90
31661;DHT22;18267;52.234;7.444;2024-03-02T09:41:24;9.60;99.90
31661;DHT22;18267;52.234;7.444;2024-03-02T09:43:50;9.70;99.90
31661;DHT22;18267;52.234;7.444;2024-03-02T09:46:16;9.70;99.90
31661;DHT22;18267;52.234;7.444;2024-03-02T09:48:44;9.70;99.90
31661;DHT22;18267;52.234;7.444;2024-03-02T09:51:10;9.80;99.90
31661;DHT22;18267;52.234;7.444;2024-03-02T09:53:36;9.80;99.90
31661;DHT22;18267;52.234;7.444;2024-03-02T09:56:02;9.80;99.90
31661;DHT22;18267;52.234;7.444;2024-03-02T09:58:28;9.90;99.90
31661;DHT22;18267;52.234;7.444;2024-03-02T10:00:54;10.00;99.90
31661;DHT22;18267;52.234;7.444;2024-03-02T10:03:19;10.00;99.90
31661;DHT22;18267;52.234;7.444;2024-03-02T10:05:46;10.10;99.90
31661;DHT22;18267;52.234;7.444;2024-03-02T10:08:11;10.10;99.90
31661;DHT22;18267;52.234;7.444;2024-03-02T10:10:41;10.10;99.90
31661;DHT22;18267;52.234;7.444;2024-03-02T10:13:09;10.20;99.90
31661;DHT22;18267;52.234;7.444;2024-03-02T10:15:36;10.30;99.90
31661;DHT22;18267;52.234;7.444;2024-03-02T10:18:09;10.40;99.90
31661;DHT22;18267;52.234;7.444;2024-03-02T10:20:39;10.40;99.90
31661;DHT22;18267;52.234;7.444;2024-03-02T10:23:12;10.40;99.90
31661;DHT22;18267;52.234;7.444;2024-03-02T10:25:38;10.50;99.90
31661;DHT22;18267;52.234;7.444;2024-03-02T10:28:03;10.50;99.90
31661;DHT22;18267;52.234;7.444;2024-03-02T10:30:31;10.50;99.90
31661;DHT22;18267;52.234;7.444;2024-03-02T10:32:57;10.50;99.90
31661;DHT22;18267;52.234;7.444;2024-03-02T10:35:23;10.50;99.90
31661;DHT22;18267;52.234;7.444;2024-03-02T10:37:49;10.60;99.90
31661;DHT22;18267;52.234;7.444;2024-03-02T10:40:16;10.60;99.90
31661;DHT22;18267;52.234;7.444;2024-03-02T10:42:42;10.70;99.90
31661;DHT22;18267;52.234;7.444;2024-03-02T10:45:12;10.80;99.90
31661;DHT22;18267;52.234;7.444;2024-03-02T10:47:41;10.80;99.90
31661;DHT22;18267;52.234;7.444;2024-03-02T10:50:08;10.80;99.90
31661;DHT22;18267;52.234;7.444;2024-03-02T10:52:43;10.90;99.90
31661;DHT22;18267;52.234;7.444;2024-03-02T10:55:09;10.90;99.90
31661;DHT22;18267;52.234;7.444;2024-03-02T10:57:54;10.90;99.90
31661;DHT22;18267;52.234;7.444;2024-03-02T11:00:24;10.90;99.90
31661;DHT22;18267;52.234;7.444;2024-03-02T11:03:02;10.90;99.90
31661;DHT22;18267;52.234;7.444;2024-03-02T11:05:36;10.80;99.90
31661;DHT22;18267;52.234;7.444;2024-03-02T11:08:06;10.90;99.90
31661;DHT22;18267;52.234;7.444;2024-03-02T11:10:40;10.90;99.90
31661;DHT22;18267;52.234;7.444;2024-03-02T11:13:09;10.90;99.90
31661;DHT22;18267;52.234;7.444;2024-03-02T11:15:35;10.90;99.90
31661;DHT22;18267;52.234;7.444;2024-03-02T11:18:04;10.90;99.90
31661;DHT22;18267;52.234;7.444;2024-03-02T11:20:36;11.00;99.90
31661;DHT22;18267;52.234;7.444;2024-03-02T11:23:07;11.00;99.90
31661;DHT22;18267;52.234;7.444;2024-03-02T11:25:34;11.00;99.90
31661;DHT22;18267;52.234;7.444;2024-03-02T11:28:02;11.10;99.90
31661;DHT22;18267;52.234;7.444;2024-03-02T11:33:00;11.10;99.90
31661;DHT22;18267;52.234;7.444;2024-03-02T11:35:26;11.10;99.90
31661;DHT22;18267;52.234;7.444;2024-03-02T11:37:54;11.20;99.90
31661;DHT22;18267;52.234;7.444;2024-03-02T11:40:25;11.30;99.90
31661;DHT22;18267;52.234;7.444;2024-03-02T11:42:50;11.40;99.90
31661;DHT22;18267;52.234;7.444;2024-03-02T11:45:17;11.40;99.90
31661;DHT22;18267;52.234;7.444;2024-03-02T11:47:50;11.50;99.90
31661;DHT22;18267;52.234;7.444;2024-03-02T11:50:15;11.50;99.90
31661;DHT22;18267;52.234;7.444;2024-03-02T11:52:42;11.60;99.90
31661;DHT22;18267;52.234;7.444;2024-03-02T11:55:09;11.60;99.90
31661;DHT22;18267;52.234;7.444;2024-03-02T11:57:37;11.60;99.90
31661;DHT22;18267;52.234;7.444;2024-03-02T12:00:03;11.60;99.90
31661;DHT22;18267;52.234;7.444;2024-03-02T12:02:29;11.60;99.90
31661;DHT22;18267;52.234;7.444;2024-03-02T12:04:55;11.70;99.90
31661;DHT22;18267;52.234;7.444;2024-03-02T12:07:23;11.70;99.90
31661;DHT22;18267;52.234;7.444;2024-03-02T12:10:09;11.80;99.90
31661;DHT22;18267;52.234;7.444;2024-03-02T12:12:34;11.80;99.90
31661;DHT22;18267;52.234;7.444;2024-03-02T12:15:00;11.90;99.90
31661;DHT22;18267;52.234;7.444;2024-03-02T12:17:26;12.00;99.90
31661;DHT22;18267;52.234;7.444;2024-03-02T12:19:52;12.00;99.90
31661;DHT22;18267;52.234;7.444;2024-03-02T12:22:18;12.10;99.90
31661;DHT22;18267;52.234;7.444;2024-03-02T12:24:44;12.00;99.90
31661;DHT22;18267;52.234;7.444;2024-03-02T12:27:15;12.00;99.90
31661;DHT22;18267;52.234;7.444;2024-03-02T12:29:41;12.00;99.90
31661;DHT22;18267;52.234;7.444;2024-03-02T12:32:06;12.00;99.90
31661;DHT22;18267;52.234;7.444;2024-03-02T12:34:32;12.10;99.90
31661;DHT22;18267;52.234;7.444;2024-03-02T12:36:58;12.10;99.90
31661;DHT22;18267;52.234;7.444;2024-03-02T12:39:24;12.10;99.90
31661;DHT22;18267;52.234;7.444;2024-03-02T12:41:50;12.00;99.90
31661;DHT22;18267;52.234;7.444;2024-03-02T12:44:17;12.10;99.90
31661;DHT22;18267;52.234;7.444;2024-03-02T12:46:43;12.20;99.90
31661;DHT22;18267;52.234;7.444;2024-03-02T12:49:10;12.20;99.90
31661;DHT22;18267;52.234;7.444;2024-03-02T12:51:37;12.20;99.90
31661;DHT22;18267;52.234;7.444;2024-03-02T12:54:03;12.20;99.90
31661;DHT22;18267;52.234;7.444;2024-03-02T12:56:30;12.20;99.90
31661;DHT22;18267;52.234;7.444;2024-03-02T12:58:56;12.10;99.90
31661;DHT22;18267;52.234;7.444;2024-03-02T13:01:23;12.20;99.90
31661;DHT22;18267;52.234;7.444;2024-03-02T13:03:53;12.30;99.90
31661;DHT22;18267;52.234;7.444;2024-03-02T13:06:21;12.30;99.90
31661;DHT22;18267;52.234;7.444;2024-03-02T13:08:46;12.40;99.90
31661;DHT22;18267;52.234;7.444;2024-03-02T13:11:13;12.30;99.90
31661;DHT22;18267;52.234;7.444;2024-03-02T13:13:39;12.30;99.90
31661;DHT22;18267;52.234;7.444;2024-03-02T13:16:12;12.30;99.90
31661;DHT22;18267;52.234;7.444;2024-03-02T13:18:39;12.30;99.90
31661;DHT22;18267;52.234;7.444;2024-03-02T13:21:06;12.30;99.90
31661;DHT22;18267;52.234;7.444;2024-03-02T13:23:32;12.30;99.90
31661;DHT22;18267;52.234;7.444;2024-03-02T13:25:58;12.30;99.90
31661;DHT22;18267;52.234;7.444;2024-03-02T13:28:27;12.40;99.90
31661;DHT22;18267;52.234;7.444;2024-03-02T13:30:53;12.50;99.90
31661;DHT22;18267;52.234;7.444;2024-03-02T13:33:19;12.50;99.90
31661;DHT22;18267;52.234;7.444;2024-03-02T13:35:53;12.60;99.90
31661;DHT22;18267;52.234;7.444;2024-03-02T13:38:19;12.50;99.90
31661;DHT22;18267;52.234;7.444;2024-03-02T13:40:46;12.60;99.90
31661;DHT22;18267;52.234;7.444;2024-03-02T13:43:16;12.70;99.90
31661;DHT22;18267;52.234;7.444;2024-03-02T13:45:42;12.80;99.90
31661;DHT22;18267;52.234;7.444;2024-03-02T13:48:08;12.80;99.90
31661;DHT22;18267;52.234;7.444;2024-03-02T13:50:33;12.80;99.90
31661;DHT22;18267;52.234;7.444;2024-03-02T13:52:59;12.80;99.90
31661;DHT22;18267;52.234;7.444;2024-03-02T13:55:24;12.80;99.90
31661;DHT22;18267;52.234;7.444;2024-03-02T13:57:50;13.00;99.90
31661;DHT22;18267;52.234;7.444;2024-03-02T14:00:19;13.10;99.90
31661;DHT22;18267;52.234;7.444;2024-03-02T14:02:48;13.20;99.90
31661;DHT22;18267;52.234;7.444;2024-03-02T14:05:17;13.10;99.90
31661;DHT22;18267;52.234;7.444;2024-03-02T14:07:42;13.20;99.90
31661;DHT22;18267;52.234;7.444;2024-03-02T14:10:09;13.30;99.90
31661;DHT22;18267;52.234;7.444;2024-03-02T14:12:36;13.30;99.90
31661;DHT22;18267;52.234;7.444;2024-03-02T14:15:01;13.30;99.90
31661;DHT22;18267;52.234;7.444;2024-03-02T14:17:30;13.30;99.90
31661;DHT22;18267;52.234;7.444;2024-03-02T14:19:57;13.40;99.90
31661;DHT22;18267;52.234;7.444;2024-03-02T14:22:24;13.40;99.90
31661;DHT22;18267;52.234;7.444;2024-03-02T14:24:50;13.50;99.90
31661;DHT22;18267;52.234;7.444;2024-03-02T14:27:15;13.50;99.90
31661;DHT22;18267;52.234;7.444;2024-03-02T14:29:42;13.60;99.90
31661;DHT22;18267;52.234;7.444;2024-03-02T14:32:08;13.60;99.90
31661;DHT22;18267;52.234;7.444;2024-03-02T14:34:34;13.60;99.90
31661;DHT22;18267;52.234;7.444;2024-03-02T14:37:00;13.50;99.90
31661;DHT22;18267;52.234;7.444;2024-03-02T14:39:26;13.40;99.90
31661;DHT22;18267;52.234;7.444;2024-03-02T14:41:52;13.30;99.90
31661;DHT22;18267;52.234;7.444;2024-03-02T14:44:18;13.30;99.90
31661;DHT22;18267;52.234;7.444;2024-03-02T14:46:47;13.30;99.90
31661;DHT22;18267;52.234;7.444;2024-03-02T14:49:13;13.20;99.90
31661;DHT22;18267;52.234;7.444;2024-03-02T14:51:39;13.20;99.90
31661;DHT22;18267;52.234;7.444;2024-03-02T14:54:04;13.10;99.90
31661;DHT22;18267;52.234;7.444;2024-03-02T14:56:30;13.10;99.90
31661;DHT22;18267;52.234;7.444;2024-03-02T14:58:56;13.10;99.90
31661;DHT22;18267;52.234;7.444;2024-03-02T15:01:22;13.00;99.90
31661;DHT22;18267;52.234;7.444;2024-03-02T15:03:52;12.90;99.90
31661;DHT22;18267;52.234;7.444;2024-03-02T15:06:18;12.90;99.90
31661;DHT22;18267;52.234;7.444;2024-03-02T15:08:43;12.90;99.90
31661;DHT22;18267;52.234;7.444;2024-03-02T15:11:11;12.90;99.90
31661;DHT22;18267;52.234;7.444;2024-03-02T15:13:37;13.00;99.90
31661;DHT22;18267;52.234;7.444;2024-03-02T15:16:03;13.00;99.90
31661;DHT22;18267;52.234;7.444;2024-03-02T15:18:29;13.00;99.90
31661;DHT22;18267;52.234;7.444;2024-03-02T15:20:54;13.10;99.90
31661;DHT22;18267;52.234;7.444;2024-03-02T15:23:20;13.10;99.90
31661;DHT22;18267;52.234;7.444;2024-03-02T15:25:45;13.20;99.90
31661;DHT22;18267;52.234;7.444;2024-03-02T15:28:12;13.20;99.90
31661;DHT22;18267;52.234;7.444;2024-03-02T15:30:38;13.30;99.90
31661;DHT22;18267;52.234;7.444;2024-03-02T15:33:04;13.30;99.90
31661;DHT22;18267;52.234;7.444;2024-03-02T15:35:30;13.30;99.90
31661;DHT22;18267;52.234;7.444;2024-03-02T15:37:56;13.40;99.90
31661;DHT22;18267;52.234;7.444;2024-03-02T15:40:22;13.40;99.90